createdAt,value
2017-09-19T00:01:07.736Z,99.90
2017-09-19T00:03:36.013Z,99.90
2017-09-19T00:06:04.272Z,99.90
2017-09-19T00:08:32.600Z,99.90
2017-09-19T00:11:00.970Z,99.90
2017-09-19T00:13:29.217Z,99.90
2017-09-19T00:15:57.543Z,99.90
2017-09-19T00:18:25.798Z,99.90
2017-09-19T00:20:54.113Z,99.90
2017-09-19T00:23:22.460Z,99.90
2017-09-19T00:25:50.747Z,99.90
2017-09-19T00:28:19.112Z,99.90
2017-09-19T00:30:47.537Z,99.90
2017-09-19T00:33:16.551Z,99.90
2017-09-19T00:35:44.837Z,99.90
2017-09-19T00:38:13.102Z,99.90
2017-09-19T00:40:41.373Z,99.90
2017-09-19T00:43:09.637Z,99.90
2017-09-19T00:45:38.689Z,99.90
2017-09-19T00:48:07.089Z,99.90
2017-09-19T00:50:35.550Z,99.90
2017-09-19T00:53:03.828Z,99.90
2017-09-19T00:55:32.089Z,99.90
2017-09-19T00:58:00.357Z,99.90
2017-09-19T01:00:28.670Z,99.90
2017-09-19T01:02:56.966Z,99.90
2017-09-19T01:05:25.310Z,99.90
2017-09-19T01:07:53.586Z,99.90
2017-09-19T01:10:21.876Z,99.90
2017-09-19T01:12:51.649Z,99.90
2017-09-19T01:15:19.937Z,99.90
2017-09-19T01:17:48.239Z,99.90
2017-09-19T01:20:16.608Z,99.90
2017-09-19T01:22:44.864Z,99.90
2017-09-19T01:25:13.148Z,99.90
2017-09-19T01:27:41.453Z,99.90
2017-09-19T01:30:10.499Z,99.90
2017-09-19T01:32:38.783Z,99.90
2017-09-19T01:35:07.062Z,99.90
2017-09-19T01:37:35.377Z,99.90
2017-09-19T01:40:03.654Z,99.90
2017-09-19T01:42:31.923Z,99.90
2017-09-19T01:45:00.210Z,99.90
2017-09-19T01:47:28.685Z,99.90
2017-09-19T01:49:56.934Z,99.90
2017-09-19T01:52:25.234Z,99.90
2017-09-19T01:54:53.517Z,99.90
2017-09-19T01:57:21.784Z,99.90
2017-09-19T01:59:50.174Z,99.90
2017-09-19T02:02:19.267Z,99.90
2017-09-19T02:04:47.648Z,99.90
2017-09-19T02:07:15.925Z,99.90
2017-09-19T02:09:44.381Z,99.90
2017-09-19T02:12:12.646Z,99.90
2017-09-19T02:14:40.925Z,99.90
2017-09-19T02:17:09.204Z,99.90
2017-09-19T02:19:37.477Z,99.90
2017-09-19T02:22:05.893Z,99.90
2017-09-19T02:24:34.168Z,99.90
2017-09-19T02:27:02.466Z,99.90
2017-09-19T02:29:30.746Z,99.90
2017-09-19T02:31:59.019Z,99.90
2017-09-19T02:34:27.410Z,99.90
2017-09-19T02:36:56.469Z,99.90
2017-09-19T02:39:24.763Z,99.90
2017-09-19T02:41:53.849Z,99.90
2017-09-19T02:44:22.253Z,99.90
2017-09-19T02:46:50.522Z,99.90
2017-09-19T02:49:18.879Z,99.90
2017-09-19T02:51:47.158Z,99.90
2017-09-19T02:54:15.437Z,99.90
2017-09-19T02:56:43.713Z,99.90
2017-09-19T02:59:12.002Z,99.90
2017-09-19T03:01:40.474Z,99.90
2017-09-19T03:04:08.755Z,99.90
2017-09-19T03:06:37.037Z,99.90
2017-09-19T03:09:05.312Z,99.90
2017-09-19T03:11:33.600Z,99.90
2017-09-19T03:14:01.959Z,99.90
2017-09-19T03:16:30.253Z,99.90
2017-09-19T03:18:58.513Z,99.90
2017-09-19T03:21:26.816Z,99.90
2017-09-19T03:23:55.069Z,99.90
2017-09-19T03:26:23.340Z,99.90
2017-09-19T03:28:51.828Z,99.90
2017-09-19T03:31:20.075Z,99.90
2017-09-19T03:33:48.386Z,99.90
2017-09-19T03:36:16.657Z,99.90
2017-09-19T03:38:44.939Z,99.90
2017-09-19T03:41:13.200Z,99.90
2017-09-19T03:43:41.713Z,99.90
2017-09-19T03:46:10.090Z,99.90
2017-09-19T03:48:40.111Z,99.90
2017-09-19T03:51:08.464Z,99.90
2017-09-19T03:53:36.709Z,99.90
2017-09-19T03:56:05.026Z,99.90
2017-09-19T03:58:33.324Z,99.90
2017-09-19T04:01:01.617Z,99.90
2017-09-19T04:03:29.962Z,99.90
2017-09-19T04:05:58.336Z,99.90
2017-09-19T04:08:26.597Z,99.90
2017-09-19T04:10:54.900Z,99.90
2017-09-19T04:13:23.168Z,99.90
2017-09-19T04:15:51.548Z,99.90
2017-09-19T04:18:19.792Z,99.90
2017-09-19T04:20:48.069Z,99.90
2017-09-19T04:23:16.345Z,99.90
2017-09-19T04:25:44.609Z,99.90
2017-09-19T04:28:12.913Z,99.90
2017-09-19T04:30:41.160Z,99.90
2017-09-19T04:33:09.482Z,99.90
2017-09-19T04:35:38.764Z,99.90
2017-09-19T04:38:07.028Z,99.90
2017-09-19T04:40:35.280Z,99.90
2017-09-19T04:43:04.334Z,99.90
2017-09-19T04:45:32.604Z,99.90
2017-09-19T04:48:00.904Z,99.90
2017-09-19T04:50:29.982Z,99.90
2017-09-19T04:52:58.234Z,99.90
2017-09-19T04:55:26.515Z,99.90
2017-09-19T04:57:54.798Z,99.90
2017-09-19T05:00:23.082Z,99.90
2017-09-19T05:02:51.344Z,99.90
2017-09-19T05:05:19.898Z,99.90
2017-09-19T05:07:48.148Z,99.90
2017-09-19T05:10:17.199Z,99.90
2017-09-19T05:12:45.457Z,99.90
2017-09-19T05:15:13.749Z,99.90
2017-09-19T05:17:42.173Z,99.90
2017-09-19T05:20:10.512Z,99.90
2017-09-19T05:22:38.803Z,99.90
2017-09-19T05:25:07.080Z,99.90
2017-09-19T05:27:35.358Z,99.90
2017-09-19T05:30:03.637Z,99.90
2017-09-19T05:32:31.920Z,99.90
2017-09-19T05:35:00.189Z,99.90
2017-09-19T05:37:28.507Z,99.90
2017-09-19T05:39:56.883Z,99.90
2017-09-19T05:42:26.050Z,99.90
2017-09-19T05:44:54.314Z,99.90
2017-09-19T05:47:22.604Z,99.90
2017-09-19T05:49:52.416Z,99.90
2017-09-19T05:52:20.697Z,99.90
2017-09-19T05:54:48.969Z,99.90
2017-09-19T05:57:18.065Z,99.90
2017-09-19T05:59:46.437Z,99.90
2017-09-19T06:02:14.697Z,99.90
2017-09-19T06:04:43.021Z,99.90
2017-09-19T06:07:12.118Z,99.90
2017-09-19T06:09:41.181Z,99.90
2017-09-19T06:12:09.474Z,99.90
2017-09-19T06:14:38.520Z,99.90
2017-09-19T06:17:06.807Z,99.90
2017-09-19T06:19:35.105Z,99.90
2017-09-19T06:22:03.490Z,99.90
2017-09-19T06:24:31.770Z,99.90
2017-09-19T06:27:01.606Z,99.90
2017-09-19T06:29:29.863Z,99.90
2017-09-19T06:31:58.939Z,99.90
2017-09-19T06:34:27.211Z,99.90
2017-09-19T06:36:55.510Z,99.90
2017-09-19T06:39:23.786Z,99.90
2017-09-19T06:41:52.164Z,99.90
2017-09-19T06:44:20.440Z,99.90
2017-09-19T06:46:48.721Z,99.90
2017-09-19T06:49:17.010Z,99.90
2017-09-19T06:51:45.270Z,99.90
2017-09-19T06:54:13.576Z,99.90
2017-09-19T06:56:42.640Z,99.90
2017-09-19T06:59:11.024Z,99.90
2017-09-19T07:01:39.424Z,99.90
2017-09-19T07:04:07.700Z,99.90
2017-09-19T07:06:35.990Z,99.90
2017-09-19T07:09:05.082Z,99.90
2017-09-19T07:11:34.142Z,99.90
2017-09-19T07:14:02.416Z,99.90
2017-09-19T07:16:30.727Z,99.90
2017-09-19T07:18:59.776Z,99.90
2017-09-19T07:21:28.050Z,99.90
2017-09-19T07:23:56.364Z,99.90
2017-09-19T07:26:24.732Z,99.90
2017-09-19T07:28:53.111Z,99.90
2017-09-19T07:31:21.386Z,99.90
2017-09-19T07:33:49.679Z,99.90
2017-09-19T07:36:17.941Z,99.90
2017-09-19T07:38:46.319Z,99.90
2017-09-19T07:41:14.701Z,99.90
2017-09-19T07:43:42.964Z,99.90
2017-09-19T07:46:11.264Z,99.90
2017-09-19T07:48:39.529Z,99.90
2017-09-19T07:51:07.813Z,99.90
2017-09-19T07:53:36.079Z,99.90
2017-09-19T07:56:04.369Z,99.90
2017-09-19T07:58:32.628Z,99.90
2017-09-19T08:01:00.923Z,99.90
2017-09-19T08:03:29.191Z,99.90
2017-09-19T08:05:57.584Z,99.90
2017-09-19T08:08:25.981Z,99.90
2017-09-19T08:10:55.052Z,99.90
2017-09-19T08:13:23.433Z,99.90
2017-09-19T08:15:51.809Z,99.90
2017-09-19T08:18:20.193Z,99.90
2017-09-19T08:20:49.967Z,99.90
2017-09-19T08:23:18.306Z,99.90
2017-09-19T08:25:46.653Z,99.90
2017-09-19T08:28:14.957Z,99.90
2017-09-19T08:30:43.989Z,99.90
2017-09-19T08:33:12.305Z,99.90
2017-09-19T08:35:40.584Z,99.90
2017-09-19T08:38:08.871Z,99.90
2017-09-19T08:40:37.177Z,99.90
2017-09-19T08:43:06.197Z,99.90
2017-09-19T08:45:34.532Z,99.90
2017-09-19T08:48:02.784Z,99.90
2017-09-19T08:50:31.064Z,99.90
2017-09-19T08:52:59.339Z,99.90
2017-09-19T08:55:27.722Z,99.90
2017-09-19T08:57:55.976Z,99.90
2017-09-19T09:00:24.238Z,99.90
2017-09-19T09:02:52.550Z,99.90
2017-09-19T09:05:20.824Z,99.90
2017-09-19T09:07:49.216Z,99.90
2017-09-19T09:10:17.473Z,99.90
2017-09-19T09:12:45.761Z,99.90
2017-09-19T09:15:14.036Z,99.90
2017-09-19T09:17:42.417Z,99.90
2017-09-19T09:20:10.691Z,99.90
2017-09-19T09:22:38.988Z,99.90
2017-09-19T09:25:07.265Z,99.90
2017-09-19T09:27:35.624Z,99.90
2017-09-19T09:30:04.108Z,99.90
2017-09-19T09:32:32.357Z,99.90
2017-09-19T09:35:00.639Z,99.90
2017-09-19T09:37:28.917Z,99.90
2017-09-19T09:39:57.235Z,99.90
2017-09-19T09:42:25.509Z,99.90
2017-09-19T09:44:53.792Z,99.90
2017-09-19T09:47:22.085Z,99.90
2017-09-19T09:49:51.137Z,99.90
2017-09-19T09:52:19.437Z,99.90
2017-09-19T09:54:47.739Z,99.90
2017-09-19T09:57:16.790Z,99.90
2017-09-19T09:59:45.089Z,99.90
2017-09-19T10:02:13.460Z,99.90
2017-09-19T10:04:41.746Z,99.90
2017-09-19T10:07:10.029Z,99.90
2017-09-19T10:09:38.293Z,99.90
2017-09-19T10:12:06.663Z,99.90
2017-09-19T10:14:34.925Z,99.90
2017-09-19T10:17:03.224Z,99.90
2017-09-19T10:19:31.517Z,99.90
2017-09-19T10:21:59.798Z,99.90
2017-09-19T10:24:28.858Z,99.90
2017-09-19T10:26:57.131Z,99.90
2017-09-19T10:29:25.432Z,99.90
2017-09-19T10:31:53.709Z,99.90
2017-09-19T10:34:21.993Z,99.90
2017-09-19T10:36:50.356Z,99.70
2017-09-19T10:39:18.741Z,99.60
2017-09-19T10:41:47.022Z,98.70
2017-09-19T10:44:15.289Z,98.20
2017-09-19T10:46:43.682Z,97.60
2017-09-19T10:49:11.951Z,94.40
2017-09-19T10:51:40.237Z,95.00
2017-09-19T10:54:08.509Z,96.00
2017-09-19T10:56:36.876Z,96.80
2017-09-19T10:59:05.145Z,95.50
2017-09-19T11:01:33.532Z,94.40
2017-09-19T11:04:01.801Z,94.40
2017-09-19T11:06:30.185Z,94.50
2017-09-19T11:08:58.441Z,94.90
2017-09-19T11:11:26.701Z,93.30
2017-09-19T11:13:54.989Z,91.80
2017-09-19T11:16:23.260Z,93.00
2017-09-19T11:18:51.548Z,93.80
2017-09-19T11:21:19.815Z,93.20
2017-09-19T11:23:48.147Z,93.90
2017-09-19T11:26:16.441Z,93.40
2017-09-19T11:28:45.523Z,94.50
2017-09-19T11:31:13.782Z,94.40
2017-09-19T11:33:42.158Z,95.50
2017-09-19T11:36:10.526Z,95.00
2017-09-19T11:38:39.557Z,94.20
2017-09-19T11:41:08.621Z,94.50
2017-09-19T11:43:36.896Z,94.40
2017-09-19T11:46:05.179Z,91.90
2017-09-19T11:48:33.474Z,91.90
2017-09-19T11:51:01.791Z,90.00
2017-09-19T11:53:30.112Z,90.50
2017-09-19T11:55:58.418Z,85.70
2017-09-19T11:58:27.454Z,90.10
2017-09-19T12:00:55.727Z,90.10
2017-09-19T12:03:24.009Z,87.90
2017-09-19T12:05:52.331Z,85.10
2017-09-19T12:08:20.635Z,84.60
2017-09-19T12:10:49.712Z,80.00
2017-09-19T12:13:18.791Z,83.20
2017-09-19T12:15:47.164Z,82.20
2017-09-19T12:18:15.476Z,83.20
2017-09-19T12:20:44.525Z,80.60
2017-09-19T12:23:12.916Z,80.40
2017-09-19T12:25:41.297Z,83.00
2017-09-19T12:28:09.573Z,82.10
2017-09-19T12:30:37.888Z,81.20
2017-09-19T12:33:06.949Z,81.70
2017-09-19T12:35:35.326Z,81.50
2017-09-19T12:38:03.606Z,84.50
2017-09-19T12:40:31.912Z,82.70
2017-09-19T12:43:00.973Z,84.80
2017-09-19T12:45:29.260Z,84.30
2017-09-19T12:47:57.543Z,83.20
2017-09-19T12:50:25.807Z,82.60
2017-09-19T12:52:54.090Z,80.10
2017-09-19T12:55:22.347Z,79.80
2017-09-19T12:57:50.645Z,82.50
2017-09-19T13:00:18.903Z,84.40
2017-09-19T13:02:47.207Z,85.00
2017-09-19T13:05:15.577Z,81.80
2017-09-19T13:07:43.840Z,81.40
2017-09-19T13:10:12.225Z,80.80
2017-09-19T13:12:40.506Z,80.60
2017-09-19T13:15:08.782Z,77.20
2017-09-19T13:17:37.052Z,76.60
2017-09-19T13:20:05.358Z,78.20
2017-09-19T13:22:33.637Z,76.90
2017-09-19T13:25:01.914Z,75.70
2017-09-19T13:27:30.193Z,74.50
2017-09-19T13:29:59.236Z,73.30
2017-09-19T13:32:39.442Z,73.30
2017-09-19T13:35:07.700Z,76.30
2017-09-19T13:37:36.105Z,72.60
2017-09-19T13:40:05.162Z,72.00
2017-09-19T13:42:33.443Z,71.90
2017-09-19T13:45:01.759Z,71.10
2017-09-19T13:47:30.095Z,69.70
2017-09-19T13:49:58.375Z,71.30
2017-09-19T13:52:26.680Z,69.30
2017-09-19T13:54:54.958Z,70.60
2017-09-19T13:57:23.220Z,70.80
2017-09-19T13:59:51.551Z,72.10
2017-09-19T14:02:19.816Z,73.20
2017-09-19T14:04:48.145Z,75.00
2017-09-19T14:07:16.404Z,76.90
2017-09-19T14:09:44.797Z,77.50
2017-09-19T14:12:13.885Z,76.70
2017-09-19T14:14:42.288Z,73.90
2017-09-19T14:17:10.623Z,75.20
2017-09-19T14:19:38.881Z,75.00
2017-09-19T14:22:07.171Z,72.80
2017-09-19T14:24:35.481Z,64.70
2017-09-19T14:27:03.968Z,63.50
2017-09-19T14:29:32.221Z,64.30
2017-09-19T14:32:00.526Z,64.80
2017-09-19T14:34:28.901Z,63.50
2017-09-19T14:36:57.181Z,63.40
2017-09-19T14:39:25.451Z,64.30
2017-09-19T14:41:53.748Z,68.60
2017-09-19T14:44:22.034Z,72.00
2017-09-19T14:46:51.059Z,74.80
2017-09-19T14:49:19.335Z,74.90
2017-09-19T14:51:47.594Z,76.90
2017-09-19T14:54:16.641Z,79.70
2017-09-19T14:56:44.920Z,79.70
2017-09-19T14:59:13.321Z,81.10
2017-09-19T15:01:41.586Z,82.00
2017-09-19T15:04:09.902Z,83.90
2017-09-19T15:06:38.941Z,87.30
2017-09-19T15:09:07.235Z,87.30
2017-09-19T15:11:35.520Z,89.20
2017-09-19T15:14:03.799Z,89.70
2017-09-19T15:16:32.077Z,90.60
2017-09-19T15:19:00.353Z,90.40
2017-09-19T15:21:28.726Z,91.00
2017-09-19T15:23:57.010Z,91.00
2017-09-19T15:26:25.332Z,91.60
2017-09-19T15:28:53.611Z,91.70
2017-09-19T15:31:21.941Z,91.30
2017-09-19T15:33:50.259Z,92.20
2017-09-19T15:36:18.537Z,92.20
2017-09-19T15:38:46.871Z,92.60
2017-09-19T15:41:15.146Z,92.70
2017-09-19T15:43:43.533Z,93.00
2017-09-19T15:46:11.808Z,93.50
2017-09-19T15:51:14.814Z,94.10
2017-09-19T15:53:43.190Z,94.30
2017-09-19T15:56:11.447Z,94.00
2017-09-19T15:58:39.729Z,94.50
2017-09-19T16:01:08.006Z,95.20
2017-09-19T16:03:36.271Z,95.40
2017-09-19T16:06:04.553Z,95.30
2017-09-19T16:08:32.860Z,95.50
2017-09-19T16:11:01.145Z,95.60
2017-09-19T16:13:29.417Z,96.10
2017-09-19T16:15:57.736Z,96.70
2017-09-19T16:18:26.773Z,96.70
2017-09-19T16:20:55.047Z,96.70
2017-09-19T16:23:23.334Z,97.00
2017-09-19T16:25:51.605Z,97.40
2017-09-19T16:28:19.983Z,97.80
2017-09-19T16:30:48.375Z,97.80
2017-09-19T16:33:16.655Z,97.90
2017-09-19T16:35:45.735Z,98.60
2017-09-19T16:38:14.044Z,98.60
2017-09-19T16:40:43.211Z,99.10
2017-09-19T16:43:11.461Z,99.10
2017-09-19T16:45:39.766Z,99.40
2017-09-19T16:48:08.033Z,99.60
2017-09-19T16:50:36.322Z,99.50
2017-09-19T16:53:04.712Z,99.90
2017-09-19T16:55:32.993Z,99.90
2017-09-19T16:58:01.364Z,99.90
2017-09-19T17:00:29.733Z,99.90
2017-09-19T17:02:58.025Z,99.60
2017-09-19T17:05:26.402Z,99.90
2017-09-19T17:07:54.687Z,99.90
2017-09-19T17:10:23.001Z,99.90
2017-09-19T17:12:51.269Z,99.90
2017-09-19T17:15:19.537Z,99.90
2017-09-19T17:17:48.798Z,99.90
2017-09-19T17:20:17.080Z,99.90
2017-09-19T17:22:45.370Z,99.90
2017-09-19T17:25:13.646Z,99.90
2017-09-19T17:27:41.947Z,99.90
2017-09-19T17:30:10.982Z,99.90
2017-09-19T17:32:39.274Z,99.90
2017-09-19T17:35:07.545Z,99.90
2017-09-19T17:37:35.849Z,99.90
2017-09-19T17:40:04.888Z,99.90
2017-09-19T17:42:33.155Z,99.90
2017-09-19T17:45:01.445Z,99.90
2017-09-19T17:47:29.716Z,99.90
2017-09-19T17:49:58.014Z,99.90
2017-09-19T17:52:26.297Z,99.90
2017-09-19T17:54:54.569Z,99.90
2017-09-19T17:57:22.845Z,99.90
2017-09-19T17:59:51.242Z,99.90
2017-09-19T18:02:19.501Z,99.90
2017-09-19T18:04:47.801Z,99.90
2017-09-19T18:07:16.062Z,99.90
2017-09-19T18:09:44.445Z,99.90
2017-09-19T18:12:12.720Z,99.90
2017-09-19T18:14:41.009Z,99.90
2017-09-19T18:17:09.297Z,99.90
2017-09-19T18:19:37.561Z,99.90
2017-09-19T18:22:05.951Z,99.90
2017-09-19T18:24:34.198Z,99.90
2017-09-19T18:27:02.485Z,99.90
2017-09-19T18:29:30.752Z,99.90
2017-09-19T18:31:59.157Z,99.90
2017-09-19T18:34:27.423Z,99.90
2017-09-19T18:36:55.738Z,99.90
2017-09-19T18:39:24.786Z,99.90
2017-09-19T18:41:53.065Z,99.90
2017-09-19T18:44:21.343Z,99.90
2017-09-19T18:46:49.633Z,99.90
2017-09-19T18:49:18.001Z,99.90
2017-09-19T18:51:46.277Z,99.90
2017-09-19T18:54:14.582Z,99.90
2017-09-19T18:56:43.650Z,99.90
2017-09-19T18:59:12.038Z,99.90
2017-09-19T19:01:40.306Z,99.90
2017-09-19T19:04:08.642Z,99.90
2017-09-19T19:06:36.971Z,99.90
2017-09-19T19:09:05.233Z,99.90
2017-09-19T19:11:33.633Z,99.90
2017-09-19T19:14:01.908Z,99.90
2017-09-19T19:16:30.197Z,99.90
2017-09-19T19:18:58.469Z,99.90
2017-09-19T19:21:26.757Z,99.90
2017-09-19T19:23:55.796Z,99.90
2017-09-19T19:26:24.083Z,99.90
2017-09-19T19:28:52.353Z,99.90
2017-09-19T19:31:20.640Z,99.90
2017-09-19T19:33:48.916Z,99.90
2017-09-19T19:36:17.300Z,99.90
2017-09-19T19:38:45.616Z,99.90
2017-09-19T19:41:14.702Z,99.90
2017-09-19T19:43:42.971Z,99.90
2017-09-19T19:46:11.257Z,99.90
2017-09-19T19:48:39.650Z,99.90
2017-09-19T19:51:07.905Z,99.90
2017-09-19T19:53:36.230Z,99.90
2017-09-19T19:56:05.281Z,99.90
2017-09-19T19:58:33.575Z,99.90
2017-09-19T20:01:01.891Z,99.90
2017-09-19T20:03:30.970Z,99.90
2017-09-19T20:05:59.233Z,99.90
2017-09-19T20:08:27.532Z,99.90
2017-09-19T20:10:55.824Z,99.90
2017-09-19T20:13:24.110Z,99.90
2017-09-19T20:15:52.489Z,99.90
2017-09-19T20:18:20.769Z,99.90
2017-09-19T20:20:49.137Z,99.90
2017-09-19T20:23:17.620Z,99.90
2017-09-19T20:25:46.014Z,99.90
2017-09-19T20:28:14.396Z,99.90
2017-09-19T20:30:42.686Z,99.90
2017-09-19T20:33:10.962Z,99.90
2017-09-19T20:35:39.284Z,99.90
2017-09-19T20:38:08.345Z,99.90
2017-09-19T20:40:36.620Z,99.90
2017-09-19T20:43:05.001Z,99.90
2017-09-19T20:45:33.273Z,99.90
2017-09-19T20:48:01.776Z,99.90
2017-09-19T20:50:30.028Z,99.90
2017-09-19T20:52:58.320Z,99.90
2017-09-19T20:55:26.604Z,99.90
2017-09-19T20:57:54.882Z,99.90
2017-09-19T21:00:23.156Z,99.90
2017-09-19T21:02:52.489Z,99.90
2017-09-19T21:05:26.505Z,99.90
2017-09-19T21:08:00.463Z,99.90
2017-09-19T21:10:34.609Z,99.90
2017-09-19T21:13:08.502Z,99.90
2017-09-19T21:15:43.358Z,99.90
2017-09-19T21:18:17.363Z,99.90
2017-09-19T21:20:45.687Z,99.90
2017-09-19T21:23:14.080Z,99.90
2017-09-19T21:25:42.342Z,99.90
2017-09-19T21:28:10.650Z,99.90
2017-09-19T21:30:38.932Z,99.90
2017-09-19T21:33:09.988Z,99.90
2017-09-19T21:35:39.783Z,99.90
2017-09-19T21:38:08.342Z,99.90
2017-09-19T21:40:37.546Z,99.90
2017-09-19T21:43:07.418Z,99.90
2017-09-19T21:45:36.666Z,99.90
2017-09-19T21:48:04.942Z,99.90
2017-09-19T21:50:33.238Z,99.90
2017-09-19T21:53:01.617Z,99.90
2017-09-19T21:55:29.914Z,99.90
2017-09-19T21:57:58.198Z,99.90
2017-09-19T22:00:27.267Z,99.90
2017-09-19T22:02:55.574Z,99.90
2017-09-19T22:05:24.630Z,99.90
2017-09-19T22:07:52.917Z,99.90
2017-09-19T22:10:21.193Z,99.90
2017-09-19T22:12:49.671Z,99.90
2017-09-19T22:15:18.043Z,99.90
2017-09-19T22:17:46.334Z,99.90
2017-09-19T22:20:14.605Z,99.90
2017-09-19T22:22:42.881Z,99.90
2017-09-19T22:25:11.161Z,99.90
2017-09-19T22:27:39.430Z,99.90
2017-09-19T22:30:07.721Z,99.90
2017-09-19T22:32:35.998Z,99.90
2017-09-19T22:35:04.290Z,99.90
2017-09-19T22:37:33.334Z,99.90
2017-09-19T22:40:01.649Z,99.90
2017-09-19T22:42:29.930Z,99.90
2017-09-19T22:44:58.209Z,99.90
2017-09-19T22:47:26.590Z,99.90
2017-09-19T22:49:56.202Z,99.90
2017-09-19T22:52:26.627Z,99.90
2017-09-19T22:54:55.075Z,99.90
2017-09-19T22:57:23.355Z,99.90
2017-09-19T22:59:51.644Z,99.90
2017-09-19T23:02:19.996Z,99.90
2017-09-19T23:04:48.291Z,99.90
2017-09-19T23:07:16.566Z,99.90
2017-09-19T23:09:44.857Z,99.90
2017-09-19T23:12:13.889Z,99.90
2017-09-19T23:14:42.222Z,99.90
2017-09-19T23:17:11.281Z,99.90
2017-09-19T23:19:39.585Z,99.90
2017-09-19T23:22:08.625Z,99.90
2017-09-19T23:24:36.928Z,99.90
2017-09-19T23:27:05.307Z,99.90
2017-09-19T23:29:33.572Z,99.90
2017-09-19T23:32:01.865Z,99.90
2017-09-19T23:34:30.124Z,99.90
2017-09-19T23:36:58.423Z,99.90
2017-09-19T23:39:26.834Z,99.90
2017-09-19T23:41:55.885Z,99.90
2017-09-19T23:44:24.273Z,99.90
2017-09-19T23:46:52.585Z,99.90
2017-09-19T23:49:21.642Z,99.90
2017-09-19T23:51:49.920Z,99.90
2017-09-19T23:54:18.213Z,99.90
2017-09-19T23:56:46.488Z,99.90
2017-09-19T23:59:14.849Z,99.90
